Time;durP1;ratioP1;P1;durP2;ratioP2;P2;SDS_P1;SDS_P2;PMS_P1;PMS_P2;Temp;Humidity;BMP_temperature;BMP_pressure;BME280_temperature;BME280_humidity;BME280_pressure;Samples;Min_cycle;Max_cycle;Signal;HPM_P1;HPM_P2
2022/10/12 00:00:10;;;;;;;12.83;5.80;;;;;;;;;;5112111;28;20448;-77
2022/10/12 00:02:37;;;;;;;13.13;7.30;;;;;;;;;;5113430;28;20447;-77
2022/10/12 00:05:05;;;;;;;8.93;6.67;;;;;;;;;;5112810;28;20444;-76
2022/10/12 00:07:32;;;;;;;11.30;7.00;;;;;;;;;;5113246;28;20451;-77
2022/10/12 00:10:00;;;;;;;11.60;7.10;;;;;;;;;;5112337;28;20455;-78
2022/10/12 00:12:28;;;;;;;12.50;5.77;;;;;;;;;;5113656;28;20450;-72
2022/10/12 00:14:55;;;;;;;9.17;7.20;;;;;;;;;;5101839;28;20539;-75
2022/10/12 00:17:22;;;;;;;9.97;5.43;;;;;;;;;;5113805;28;20812;-78
2022/10/12 00:19:50;;;;;;;8.60;5.90;;;;;;;;;;5112994;28;20476;-75
2022/10/12 00:22:17;;;;;;;7.10;6.00;;;;;;;;;;5112463;28;20449;-77
2022/10/12 00:24:44;;;;;;;12.07;6.67;;;;;;;;;;5113519;28;20817;-77
2022/10/12 00:27:13;;;;;;;10.57;6.13;;;;;;;;;;5112632;28;20489;-77
2022/10/12 00:29:40;;;;;;;9.73;6.17;;;;;;;;;;5112934;28;20806;-76
2022/10/12 00:32:08;;;;;;;19.10;7.67;;;;;;;;;;5112349;28;20448;-76
2022/10/12 00:34:35;;;;;;;7.77;6.00;;;;;;;;;;5113136;28;20451;-76
2022/10/12 00:37:02;;;;;;;12.43;6.87;;;;;;;;;;5111805;28;20443;-76
2022/10/12 00:39:29;;;;;;;14.73;7.33;;;;;;;;;;5109925;28;20479;-78
2022/10/12 00:41:56;;;;;;;12.50;7.07;;;;;;;;;;5112151;28;20827;-77
2022/10/12 00:44:38;;;;;;;9.60;6.50;;;;;;;;;;5112426;28;20445;-76
2022/10/12 00:47:07;;;;;;;9.37;6.40;;;;;;;;;;5111728;28;20453;-76
2022/10/12 00:49:35;;;;;;;10.13;6.63;;;;;;;;;;5112213;28;20444;-77
2022/10/12 00:52:04;;;;;;;11.73;7.77;;;;;;;;;;5111786;28;20926;-76
2022/10/12 00:54:33;;;;;;;8.83;6.87;;;;;;;;;;5112555;28;20444;-76
2022/10/12 00:57:02;;;;;;;10.10;7.37;;;;;;;;;;5111939;28;20483;-76
2022/10/12 00:59:32;;;;;;;12.20;7.33;;;;;;;;;;5112189;27;20479;-76
2022/10/12 01:02:00;;;;;;;12.03;6.30;;;;;;;;;;5111874;28;20455;-77
2022/10/12 01:04:28;;;;;;;9.60;7.53;;;;;;;;;;5112208;28;20439;-77
2022/10/12 01:06:55;;;;;;;10.07;6.40;;;;;;;;;;5111857;28;20455;-74
2022/10/12 01:09:22;;;;;;;7.73;5.80;;;;;;;;;;5112103;28;20448;-77
2022/10/12 01:11:49;;;;;;;11.70;7.23;;;;;;;;;;5112721;28;20462;-75
2022/10/12 01:14:17;;;;;;;15.03;6.33;;;;;;;;;;5111747;28;20455;-77
2022/10/12 01:16:50;;;;;;;9.20;6.60;;;14.60;99.90;;;;;;5112048;28;21012;-77
2022/10/12 01:19:29;;;;;;;8.53;6.10;;;;;;;;;;5111145;28;20475;-76
2022/10/12 01:21:58;;;;;;;15.63;6.53;;;;;;;;;;5111728;28;20439;-74
2022/10/12 01:24:39;;;;;;;13.53;8.77;;;13.10;99.90;;;;;;5110436;28;20447;-76
2022/10/12 01:27:33;;;;;;;10.57;6.53;;;;;;;;;;5111167;28;21009;-76
2022/10/12 01:30:06;;;;;;;9.03;6.43;;;;;;;;;;5111690;28;20453;-76
2022/10/12 01:32:35;;;;;;;14.10;6.37;;;;;;;;;;5111985;28;20527;-76
2022/10/12 01:35:04;;;;;;;8.43;6.30;;;;;;;;;;5111867;28;20443;-77
2022/10/12 01:37:36;;;;;;;9.77;6.93;;;;;;;;;;5111801;28;20452;-75
2022/10/12 01:40:05;;;;;;;11.53;8.03;;;;;;;;;;5111130;28;20475;-76
2022/10/12 01:42:33;;;;;;;9.63;7.00;;;;;;;;;;5111521;28;20448;-77
2022/10/12 01:45:05;;;;;;;8.90;6.73;;;;;;;;;;5111612;28;20796;-71
2022/10/12 01:47:33;;;;;;;9.57;6.97;;;;;;;;;;5111584;28;20472;-78
2022/10/12 01:50:01;;;;;;;9.30;7.60;;;;;;;;;;5111258;28;20450;-77
2022/10/12 01:52:29;;;;;;;15.20;6.47;;;;;;;;;;5111682;28;20444;-76
2022/10/12 01:55:02;;;;;;;14.57;7.30;;;;;;;;;;5111395;28;20450;-78
2022/10/12 01:57:33;;;;;;;8.30;6.10;;;;;;;;;;5111747;28;20448;-78
2022/10/12 02:00:03;;;;;;;10.13;7.07;;;;;;;;;;5111191;28;20487;-78
2022/10/12 02:02:35;;;;;;;9.00;7.67;;;;;;;;;;5111367;28;20447;-80
2022/10/12 02:05:04;;;;;;;9.03;6.60;;;;;;;;;;5110404;28;20805;-77
2022/10/12 02:07:36;;;;;;;14.20;6.73;;;;;;;;;;5111520;28;20455;-77
2022/10/12 02:10:07;;;;;;;10.53;7.13;;;;;;;;;;5110665;28;20519;-78
2022/10/12 02:12:36;;;;;;;11.03;7.83;;;;;;;;;;5114701;28;20450;-78
2022/10/12 02:15:04;;;;;;;11.80;7.70;;;;;;;;;;5115454;28;20443;-77
2022/10/12 02:17:34;;;;;;;9.17;6.37;;;;;;;;;;5115546;28;20879;-77
2022/10/12 02:20:02;;;;;;;9.20;5.87;;;;;;;;;;5114480;28;21001;-78
2022/10/12 02:22:33;;;;;;;15.93;7.17;;;;;;;;;;5107452;28;20443;-77
2022/10/12 02:25:01;;;;;;;12.33;8.40;;;;;;;;;;5115058;28;20444;-77
2022/10/12 02:27:28;;;;;;;10.77;7.10;;;;;;;;;;5115662;28;20467;-77
2022/10/12 02:29:56;;;;;;;8.30;6.40;;;;;;;;;;5114525;28;20435;-77
2022/10/12 02:32:28;;;;;;;9.80;6.60;;;;;;;;;;5115920;28;20451;-77
2022/10/12 02:34:59;;;;;;;11.10;7.30;;;;;;;;;;5114918;28;20470;-77
2022/10/12 02:37:30;;;;;;;9.77;6.90;;;;;;;;;;5115365;28;20440;-77
2022/10/12 02:40:00;;;;;;;7.90;5.67;;;;;;;;;;5114309;28;20476;-77
2022/10/12 02:42:29;;;;;;;9.67;6.60;;;;;;;;;;5115539;28;20440;-77
2022/10/12 02:44:59;;;;;;;8.70;6.73;;;;;;;;;;5114575;28;20463;-77
2022/10/12 02:47:27;;;;;;;9.77;7.60;;;;;;;;;;5115184;28;20505;-77
2022/10/12 02:49:55;;;;;;;6.40;5.00;;;;;;;;;;5114152;28;20443;-67
2022/10/12 02:52:24;;;;;;;13.20;6.60;;;;;;;;;;5115309;28;20802;-77
2022/10/12 02:54:51;;;;;;;14.00;5.87;;;;;;;;;;5114644;28;20939;-77
2022/10/12 02:57:18;;;;;;;9.73;5.33;;;;;;;;;;5114552;28;20444;-77
2022/10/12 02:59:45;;;;;;;7.17;5.67;;;;;;;;;;5109312;28;20476;-76
2022/10/12 03:02:12;;;;;;;9.07;5.57;;;;;;;;;;5122991;28;20503;-78
2022/10/12 03:04:39;;;;;;;8.43;5.83;;;;;;;;;;5124718;28;20448;-78
2022/10/12 03:07:06;;;;;;;6.53;5.63;;;;;;;;;;5122360;28;20935;-77
2022/10/12 03:09:35;;;;;;;8.30;5.70;;;;;;;;;;5116628;28;20455;-77
2022/10/12 03:12:02;;;;;;;8.20;5.60;;;;;;;;;;5127981;28;20888;-76
2022/10/12 03:14:31;;;;;;;8.70;5.60;;;;;;;;;;5131967;28;20444;-75
2022/10/12 03:16:58;;;;;;;7.10;5.47;;;;;;;;;;5130775;28;20494;-75
2022/10/12 03:19:25;;;;;;;10.53;6.80;;;;;;;;;;5132369;28;20476;-72
2022/10/12 03:21:53;;;;;;;7.80;5.30;;;;;;;;;;5135132;28;20450;-76
2022/10/12 03:24:20;;;;;;;9.20;6.23;;;;;;;;;;5133609;28;20538;-73
2022/10/12 03:26:48;;;;;;;9.53;6.27;;;;;;;;;;5135103;28;20524;-78
2022/10/12 03:29:15;;;;;;;6.80;5.37;;;;;;;;;;5134621;28;20440;-77
2022/10/12 03:31:42;;;;;;;9.33;6.90;;;;;;;;;;5135212;28;20455;-77
2022/10/12 03:34:10;;;;;;;10.20;7.33;;;;;;;;;;5134643;28;20448;-77
2022/10/12 03:36:37;;;;;;;9.30;6.10;;;;;;;;;;5126883;28;20491;-77
2022/10/12 03:39:04;;;;;;;9.40;6.63;;;;;;;;;;5131160;28;20472;-77
2022/10/12 03:41:31;;;;;;;17.30;7.13;;;;;;;;;;5135096;28;20452;-76
2022/10/12 03:43:59;;;;;;;9.80;4.70;;;;;;;;;;5130703;28;20476;-77
2022/10/12 03:46:26;;;;;;;8.00;6.10;;;;;;;;;;5113335;28;20903;-78
2022/10/12 03:48:54;;;;;;;10.57;7.07;;;;;;;;;;5102459;28;20817;-68
2022/10/12 03:51:21;;;;;;;9.53;6.30;;;;;;;;;;5105999;28;20441;-77
2022/10/12 03:53:48;;;;;;;9.97;6.83;;;;;;;;;;5118999;28;21011;-78
2022/10/12 03:56:15;;;;;;;10.10;7.87;;;;;;;;;;5113961;28;20444;-78
2022/10/12 03:58:42;;;;;;;9.93;6.23;;;;;;;;;;5113664;28;20943;-78
2022/10/12 04:01:11;;;;;;;8.17;6.10;;;;;;;;;;5112628;28;20491;-78
2022/10/12 04:03:38;;;;;;;8.83;5.30;;;;;;;;;;5113592;28;20463;-78
2022/10/12 04:06:05;;;;;;;8.53;5.90;;;;;;;;;;5112337;28;20442;-79
2022/10/12 04:08:32;;;;;;;9.60;7.30;;;;;;;;;;5113028;28;20452;-78
2022/10/12 04:11:00;;;;;;;10.27;6.60;;;;;;;;;;5113118;28;20451;-78
2022/10/12 04:13:27;;;;;;;7.73;6.13;;;;;;;;;;5113769;28;20497;-78
2022/10/12 04:15:54;;;;;;;8.40;5.73;;;;;;;;;;5112539;28;20443;-68
2022/10/12 04:18:23;;;;;;;9.30;6.30;;;;;;;;;;5113106;28;20451;-77
2022/10/12 04:20:50;;;;;;;11.20;7.50;;;;;;;;;;5112277;28;20476;-77
2022/10/12 04:23:17;;;;;;;7.93;6.20;;;;;;;;;;5107976;28;20781;-77
2022/10/12 04:25:44;;;;;;;9.53;5.30;;;;;;;;;;5112508;28;20448;-74
2022/10/12 04:28:11;;;;;;;13.00;5.83;;;;;;;;;;5112305;28;20452;-76
2022/10/12 04:30:39;;;;;;;12.80;6.27;;;;;;;;;;5111737;28;20518;-75
2022/10/12 04:33:06;;;;;;;9.93;7.00;;;;;;;;;;5112094;28;20444;-79
2022/10/12 04:35:34;;;;;;;12.60;7.00;;;;;;;;;;5112359;28;20464;-78
2022/10/12 04:38:01;;;;;;;10.70;6.50;;;;;;;;;;5111931;28;20444;-79
2022/10/12 04:40:29;;;;;;;10.37;6.40;;;;;;;;;;5111592;28;20472;-77
2022/10/12 04:42:56;;;;;;;10.20;6.27;;;;;;;;;;5111763;28;20957;-75
2022/10/12 04:45:23;;;;;;;7.30;5.43;;;;;;;;;;5112594;28;20459;-75
2022/10/12 04:47:50;;;;;;;7.63;5.10;;;;;;;;;;5112645;28;20832;-79
2022/10/12 04:50:17;;;;;;;10.20;6.00;;;;;;;;;;5111344;28;20444;-78
2022/10/12 04:52:46;;;;;;;9.77;6.77;;;;;;;;;;5111988;28;20452;-74
2022/10/12 04:55:13;;;;;;;11.30;5.70;;;;;;;;;;5111335;28;20455;-74
2022/10/12 04:57:40;;;;;;;9.67;6.63;;;;;;;;;;5107230;28;20895;-75
2022/10/12 05:00:08;;;;;;;9.90;5.50;;;;;;;;;;5105000;28;20483;-76
2022/10/12 05:02:35;;;;;;;9.17;6.23;;;;;;;;;;5124792;27;20454;-80
2022/10/12 05:05:02;;;;;;;10.93;6.80;;;;;;;;;;5111761;28;20452;-82
2022/10/12 05:07:29;;;;;;;9.63;6.83;;;;;;;;;;5112428;28;20444;-72
2022/10/12 05:09:58;;;;;;;8.53;7.27;;;;;;;;;;5109268;28;20459;-81
2022/10/12 05:12:25;;;;;;;12.37;7.37;;;;;;;;;;5112591;28;20455;-79
2022/10/12 05:14:52;;;;;;;10.30;6.47;;;;;;;;;;5112330;28;20448;-81
2022/10/12 05:17:19;;;;;;;9.37;7.20;;;;;;;;;;5112201;28;20462;-79
2022/10/12 05:19:46;;;;;;;8.30;6.10;;;;;;;;;;5111867;28;20483;-80
2022/10/12 05:22:13;;;;;;;9.97;6.47;;;;;;;;;;5111805;28;21013;-81
2022/10/12 05:24:41;;;;;;;8.33;6.27;;;;;;;;;;5111982;28;20463;-82
2022/10/12 05:27:09;;;;;;;11.23;7.00;;;;;;;;;;5111245;28;20960;-80
2022/10/12 05:29:36;;;;;;;10.27;7.50;;;;;;;;;;5112338;28;20798;-81
2022/10/12 05:32:03;;;;;;;19.20;7.20;;;;;;;;;;5110992;28;20452;-82
2022/10/12 05:34:31;;;;;;;7.20;4.43;;;;;;;;;;5112125;28;20454;-81
2022/10/12 05:36:58;;;;;;;9.40;7.00;;;;;;;;;;5111402;28;20498;-80
2022/10/12 05:39:25;;;;;;;10.10;7.30;;;;;;;;;;5111765;28;20472;-78
2022/10/12 05:41:53;;;;;;;11.77;6.40;;;;;;;;;;5111656;28;20454;-79
2022/10/12 05:44:21;;;;;;;9.43;6.70;;;;;;;;;;5112216;28;20551;-79
2022/10/12 05:46:49;;;;;;;10.20;6.13;;;;;;;;;;5113362;28;20453;-80
2022/10/12 05:49:16;;;;;;;7.47;6.00;;;;;;;;;;5115579;28;20471;-79
2022/10/12 05:51:43;;;;;;;9.27;6.40;;;;;;;;;;5115504;28;20475;-80
2022/10/12 05:54:10;;;;;;;9.23;7.20;;;;;;;;;;5115437;28;20447;-80
2022/10/12 05:56:37;;;;;;;9.57;5.77;;;;;;;;;;5116021;28;20813;-80
2022/10/12 05:59:04;;;;;;;13.63;7.57;;;;;;;;;;5115782;28;20443;-80
2022/10/12 06:01:33;;;;;;;9.47;6.40;;;;;;;;;;5115254;28;20475;-80
2022/10/12 06:04:00;;;;;;;12.20;8.10;;;;;;;;;;5115510;28;20466;-80
2022/10/12 06:06:27;;;;;;;8.50;6.07;;;;;;;;;;5115811;28;20440;-79
2022/10/12 06:08:54;;;;;;;7.77;5.90;;;;;;;;;;5114999;28;20444;-71
2022/10/12 06:11:21;;;;;;;8.30;5.97;;;;;;;;;;5115325;28;20550;-79
2022/10/12 06:13:48;;;;;;;9.70;5.50;;;;;;;;;;5115413;28;20457;-80
2022/10/12 06:16:15;;;;;;;9.67;7.20;;;;;;;;;;5114972;28;20455;-80
2022/10/12 06:18:44;;;;;;;12.20;7.27;;;;;;;;;;5115682;28;20447;-80
2022/10/12 06:21:11;;;;;;;11.53;7.10;;;;;;;;;;5114746;28;20479;-80
2022/10/12 06:23:38;;;;;;;10.83;6.90;;;;;;;;;;5115495;28;20440;-80
2022/10/12 06:26:05;;;;;;;19.33;7.13;;;;;;;;;;5114664;28;20447;-81
2022/10/12 06:28:32;;;;;;;7.63;5.50;;;;;;;;;;5115412;28;20447;-81
2022/10/12 06:31:00;;;;;;;8.57;6.10;;;;;;;;;;5114435;28;20454;-80
2022/10/12 06:33:27;;;;;;;11.80;7.57;;;;;;;;;;5114963;28;20439;-81
2022/10/12 06:35:56;;;;;;;9.70;6.33;;;;;;;;;;5114434;28;20772;-77
2022/10/12 06:38:23;;;;;;;11.57;8.13;;;;;;;;;;5115065;28;20451;-80
2022/10/12 06:40:52;;;;;;;14.07;7.93;;;;;;;;;;5114741;28;20479;-80
2022/10/12 06:43:21;;;;;;;11.63;7.33;;;;;;;;;;5115264;28;20455;-76
2022/10/12 06:45:48;;;;;;;13.63;8.20;;;;;;;;;;5114959;28;20456;-77
2022/10/12 06:48:15;;;;;;;11.63;7.13;;;;;;;;;;5114381;28;20476;-81
2022/10/12 06:50:42;;;;;;;15.10;8.53;;;;;;;;;;5114574;28;20474;-81
2022/10/12 06:53:11;;;;;;;12.00;8.70;;;;;;;;;;5114164;28;20454;-80
2022/10/12 06:55:39;;;;;;;12.50;7.20;;;;;;;;;;5114942;28;20804;-80
2022/10/12 06:58:06;;;;;;;25.00;9.40;;;;;;;;;;5114351;28;20444;-80
2022/10/12 07:00:34;;;;;;;19.87;9.63;;;;;;;;;;5114357;28;20571;-80
2022/10/12 07:03:01;;;;;;;15.70;8.93;;;;;;;;;;5114341;28;20448;-80
2022/10/12 07:05:28;;;;;;;11.00;8.20;;;;;;;;;;5114435;28;20919;-81
2022/10/12 07:07:55;;;;;;;17.27;9.30;;;;;;;;;;5114260;28;20451;-80
2022/10/12 07:10:23;;;;;;;14.73;9.20;;;;;;;;;;5114334;28;20490;-80
2022/10/12 07:12:51;;;;;;;15.33;9.07;;;;;;;;;;5115425;28;20899;-80
2022/10/12 07:15:18;;;;;;;20.80;9.10;;;;;;;;;;5114484;28;20451;-81
2022/10/12 07:17:45;;;;;;;14.67;8.77;;;;;;;;;;5114902;28;20459;-80
2022/10/12 07:20:12;;;;;;;13.83;8.40;;;;;;;;;;5115319;28;20504;-80
2022/10/12 07:22:39;;;;;;;19.90;9.70;;;;;;;;;;5119613;28;20452;-80
2022/10/12 07:25:07;;;;;;;16.30;8.90;;;;;;;;;;5135557;28;20486;-79
2022/10/12 07:27:35;;;;;;;14.83;9.20;;;;;;;;;;5128568;28;20444;-81
2022/10/12 07:30:02;;;;;;;17.93;9.70;;;;;;;;;;5117857;28;20447;-80
2022/10/12 07:32:29;;;;;;;13.90;9.43;;;;;;;;;;5130100;28;20476;-80
2022/10/12 07:34:56;;;;;;;16.07;9.37;;;;;;;;;;5130581;28;20450;-77
2022/10/12 07:37:23;;;;;;;11.87;7.73;;;;;;;;;;5126067;28;20436;-80
2022/10/12 07:39:55;;;;;;;14.33;9.20;;;;;;;;;;5115054;28;20575;-80
2022/10/12 07:42:22;;;;;;;20.27;9.07;;;;;;;;;;5115643;28;20531;-81
2022/10/12 07:44:51;;;;;;;13.30;7.00;;;;;;;;;;5114999;28;20448;-78
2022/10/12 07:47:18;;;;;;;14.97;9.00;;;;;;;;;;5114109;28;20485;-81
2022/10/12 07:49:45;;;;;;;15.20;8.60;;;;;;;;;;5114208;28;20452;-77
2022/10/12 07:52:12;;;;;;;16.37;10.30;;;;;;;;;;5113829;28;20456;-81
2022/10/12 07:54:39;;;;;;;20.10;9.03;;;;;;;;;;5113863;28;20452;-81
2022/10/12 07:57:07;;;;;;;16.73;8.90;;;;;;;;;;5113096;28;20454;-81
2022/10/12 07:59:34;;;;;;;16.00;9.20;;;;;;;;;;5113135;28;20656;-81
2022/10/12 08:02:03;;;;;;;13.83;8.37;;;;;;;;;;5113162;28;20478;-81
2022/10/12 08:04:30;;;;;;;14.47;8.53;;;;;;;;;;5113544;28;20530;-81
2022/10/12 08:06:58;;;;;;;13.80;8.20;;;;;;;;;;5113428;28;20451;-82
2022/10/12 08:09:25;;;;;;;12.13;7.87;;;;;;;;;;5112729;28;20452;-81
2022/10/12 08:11:52;;;;;;;16.93;8.67;;;;;;;;;;5113348;28;20459;-80
2022/10/12 08:14:19;;;;;;;13.30;8.00;;;;;;;;;;5113614;28;20455;-79
2022/10/12 08:16:46;;;;;;;14.17;8.63;;;;;;;;;;5113323;28;20526;-81
2022/10/12 08:19:15;;;;;;;15.40;9.20;;;;;;;;;;5112715;28;20849;-81
2022/10/12 08:21:42;;;;;;;14.67;9.00;;;;;;;;;;5112896;28;20563;-81
2022/10/12 08:24:10;;;;;;;17.43;9.10;;;;;;;;;;5113055;28;20456;-81
2022/10/12 08:26:37;;;;;;;8.67;7.20;;;;;;;;;;5113213;28;20780;-81
2022/10/12 08:29:04;;;;;;;19.50;10.03;;;;;;;;;;5112511;28;20451;-81
2022/10/12 08:31:31;;;;;;;16.07;9.30;;;;;;;;;;5112653;28;20838;-81
2022/10/12 08:33:59;;;;;;;17.93;10.10;;;;;;;;;;5112397;28;20444;-81
2022/10/12 08:36:27;;;;;;;11.80;7.90;;;;;;;;;;5112718;28;20448;-81
2022/10/12 08:38:55;;;;;;;14.10;8.03;;;;;;;;;;5112047;28;20450;-71
2022/10/12 08:41:26;;;;;;;17.63;7.90;;;;;;;;;;5112558;28;20515;-80
2022/10/12 08:44:07;;;;;;;13.17;8.33;;;;;;;;;;5112617;28;20439;-81
2022/10/12 08:46:34;;;;;;;12.10;7.30;;;;;;;;;;5112449;28;20455;-81
2022/10/12 08:49:04;;;;;;;16.63;8.83;;;;;;;;;;5112357;28;20475;-81
2022/10/12 08:51:34;;;;;;;18.07;9.23;;;;;;;;;;5112090;28;20791;-80
2022/10/12 08:54:04;;;;;;;13.40;7.90;;;;;;;;;;5112231;28;20524;-80
2022/10/12 08:56:33;;;;;;;16.80;8.47;;;;;;;;;;5112401;28;20451;-81
2022/10/12 08:59:01;;;;;;;12.67;8.20;;;;;;;;;;5112009;28;20448;-81
2022/10/12 09:01:32;;;;;;;16.53;8.40;;;;;;;;;;5112025;28;20478;-81
2022/10/12 09:04:09;;;;;;;14.43;7.70;;;;;;;;;;5112062;28;20471;-81
2022/10/12 09:06:40;;;;;;;13.80;7.83;;;;;;;;;;5112389;28;20440;-80
2022/10/12 09:09:16;;;;;;;10.63;7.83;;;;;;;;;;5111613;28;20447;-80
2022/10/12 09:11:49;;;;;;;14.00;7.77;;;;;;;;;;5099089;28;20443;-81
2022/10/12 09:14:18;;;;;;;12.90;8.00;;;;;;;;;;5111966;28;20439;-81
2022/10/12 09:16:47;;;;;;;12.70;7.50;;;;;;;;;;5112077;28;20459;-81
2022/10/12 09:19:17;;;;;;;11.20;7.63;;;;;;;;;;5111836;28;20863;-81
2022/10/12 09:21:47;;;;;;;12.57;7.93;;;;;;;;;;5111067;28;20696;-81
2022/10/12 09:24:15;;;;;;;13.47;7.80;;;;;;;;;;5111892;28;20788;-81
2022/10/12 09:26:43;;;;;;;15.30;7.87;;;;;;;;;;5112509;28;20823;-81
2022/10/12 09:29:19;;;;;;;19.13;7.37;;;;;;;;;;5111295;28;20452;-81
2022/10/12 09:31:57;;;;;;;8.57;6.00;;;;;;;;;;5112379;28;20778;-82
2022/10/12 09:34:25;;;;;;;11.83;6.77;;;;;;;;;;5112083;28;20440;-74
2022/10/12 09:36:54;;;;;;;19.00;7.47;;;;;;;;;;5111744;28;20942;-80
2022/10/12 09:39:22;;;;;;;10.37;5.90;;;;;;;;;;5111851;28;20448;-79
2022/10/12 09:41:49;;;;;;;14.17;8.40;;;;;;;;;;5111842;28;20490;-77
2022/10/12 09:44:19;;;;;;;12.37;6.37;;;;;;;;;;5111272;28;20446;-80
2022/10/12 09:46:48;;;;;;;10.17;6.10;;;;;;;;;;5111927;28;20470;-80
2022/10/12 09:49:15;;;;;;;10.90;6.77;;;;;;;;;;5111053;28;20471;-80
2022/10/12 09:51:43;;;;;;;11.43;6.40;;;;;;;;;;5111648;28;20460;-80
2022/10/12 09:54:18;;;;;;;13.60;6.43;;;;;;;;;;5110786;28;20477;-80
2022/10/12 09:56:48;;;;;;;11.97;6.37;;;;;;;;;;5111412;28;20934;-80
2022/10/12 09:59:22;;;;;;;10.40;5.97;;;;;;;;;;5111338;28;20451;-80
2022/10/12 10:01:58;;;;;;;12.60;6.90;;;;;;;;;;5111653;28;21099;-78
2022/10/12 10:04:26;;;;;;;11.17;6.20;;;;;;;;;;5111879;28;20480;-80
2022/10/12 10:06:53;;;;;;;12.77;6.60;;;;;;;;;;5112095;28;20450;-80
2022/10/12 10:09:32;;;;;;;12.77;6.17;;;;;;;;;;5111273;28;20439;-79
2022/10/12 10:12:12;;;;;;;9.80;6.33;;;;;;;;;;5111711;28;20795;-80
2022/10/12 10:14:39;;;;;;;10.50;6.60;;;;;;;;;;5111573;28;20923;-80
2022/10/12 10:17:06;;;;;;;11.20;6.20;;;;;;;;;;5111129;28;20551;-81
2022/10/12 10:19:33;;;;;;;12.10;5.77;;;;;;;;;;5111276;28;20548;-80
2022/10/12 10:22:05;;;;;;;9.67;5.10;;;;;;;;;;5110996;28;20476;-81
2022/10/12 10:24:34;;;;;;;9.63;6.03;;;;;;;;;;5112044;28;20440;-81
2022/10/12 10:27:02;;;;;;;11.67;6.40;;;;;;;;;;5111221;28;20502;-80
2022/10/12 10:29:40;;;;;;;9.93;7.83;;;;;;;;;;5111542;28;20456;-79
2022/10/12 10:32:10;;;;;;;8.70;5.80;;;;;;;;;;5111454;28;20455;-79
2022/10/12 10:34:37;;;;;;;8.67;5.70;;;;;;;;;;5115511;28;20472;-79
2022/10/12 10:37:05;;;;;;;8.30;5.23;;;;;;;;;;5114849;28;20493;-79
2022/10/12 10:39:38;;;;;;;9.07;6.43;;;;;;;;;;5114758;28;20452;-80
2022/10/12 10:42:16;;;;;;;9.53;5.53;;;12.70;99.90;;;;;;5114469;28;21064;-80
2022/10/12 10:44:49;;;;;;;10.00;5.90;;;16.80;1.00;;;;;;5115205;28;20443;-80
2022/10/12 10:47:16;;;;;;;9.50;5.60;;;17.00;99.90;;;;;;5114486;28;21707;-80
2022/10/12 10:49:47;;;;;;;9.50;5.63;;;16.70;99.90;;;;;;5114963;28;20447;-80
2022/10/12 10:52:23;;;;;;;11.07;5.00;;;16.50;99.90;;;;;;5114599;28;20455;-81
2022/10/12 10:55:07;;;;;;;9.60;6.23;;;16.70;99.90;;;;;;5115008;28;20447;-79
2022/10/12 10:57:35;;;;;;;10.53;5.87;;;16.70;99.90;;;;;;5114830;28;20962;-79
2022/10/12 11:00:05;;;;;;;10.60;6.10;;;17.00;57.50;;;;;;5113933;28;20448;-80
2022/10/12 11:02:38;;;;;;;14.40;5.87;;;17.20;1.00;;;;;;5106884;28;20460;-80
2022/10/12 11:05:11;;;;;;;7.40;4.60;;;17.00;99.90;;;;;;5114407;28;20448;-79
2022/10/12 11:07:45;;;;;;;7.17;5.30;;;17.10;1.00;;;;;;5115021;28;20444;-80
2022/10/12 11:10:22;;;;;;;13.80;6.00;;;16.90;1.00;;;;;;5113728;28;20486;-79
2022/10/12 11:12:54;;;;;;;8.20;5.63;;;17.10;1.00;;;;;;5114804;28;20796;-79
2022/10/12 11:15:25;;;;;;;11.00;5.43;;;17.00;1.00;;;;;;5115044;28;20447;-79
2022/10/12 11:17:58;;;;;;;6.97;4.60;;;17.40;99.90;;;;;;5114766;28;20530;-79
2022/10/12 11:20:36;;;;;;;8.73;4.57;;;17.30;1.00;;;;;;5114247;28;20448;-79
2022/10/12 11:23:13;;;;;;;10.50;5.80;;;17.30;99.90;;;;;;5114095;28;20478;-80
2022/10/12 11:25:48;;;;;;;7.43;4.90;;;17.20;1.00;;;;;;5114452;28;20454;-80
2022/10/12 11:28:16;;;;;;;9.13;5.03;;;17.00;1.00;;;;;;5114724;28;20798;-80
2022/10/12 11:30:46;;;;;;;11.33;5.47;;;17.00;99.90;;;;;;5127538;28;20448;-79
2022/10/12 11:33:19;;;;;;;9.27;5.73;;;17.00;99.90;;;;;;5137225;28;20496;-80
2022/10/12 11:35:46;;;;;;;6.67;4.97;;;17.00;1.00;;;;;;5123399;28;20442;-80
2022/10/12 11:38:19;;;;;;;6.23;4.43;;;17.30;99.90;;;;;;5117487;28;20448;-80
2022/10/12 11:40:50;;;;;;;7.30;5.20;;;;;;;;;;5117565;28;20455;-81
2022/10/12 11:43:20;;;;;;;8.13;5.00;;;;;;;;;;5125774;28;20472;-78
2022/10/12 11:45:49;;;;;;;6.57;5.20;;;;;;;;;;5115571;28;20448;-80
2022/10/12 11:48:18;;;;;;;5.77;4.27;;;;;;;;;;5113742;28;20479;-79
2022/10/12 11:50:46;;;;;;;8.73;5.17;;;;;;;;;;5114136;28;20451;-80
2022/10/12 11:53:18;;;;;;;9.27;4.97;;;;;;;;;;5113608;27;20448;-80
2022/10/12 11:55:54;;;;;;;7.73;4.53;;;;;;;;;;5113677;28;20439;-79
2022/10/12 11:58:23;;;;;;;9.30;4.50;;;;;;;;;;5113923;28;20440;-80
2022/10/12 12:00:57;;;;;;;8.53;5.27;;;;;;;;;;5113531;28;20444;-79
2022/10/12 12:03:29;;;;;;;10.10;4.17;;;;;;;;;;5113412;28;20470;-75
2022/10/12 12:05:56;;;;;;;7.33;4.33;;;;;;;;;;5113031;28;20436;-80
2022/10/12 12:08:24;;;;;;;7.20;5.00;;;;;;;;;;5113589;28;20444;-80
2022/10/12 12:11:04;;;;;;;12.07;4.40;;;;;;;;;;5113030;28;20440;-80
2022/10/12 12:13:31;;;;;;;6.17;5.00;;;;;;;;;;5113806;28;20440;-79
2022/10/12 12:16:32;;;;;;;8.27;5.13;;;;;;;;;;5112932;28;20527;-80
2022/10/12 12:19:20;;;;;;;8.23;4.00;;;;;;;;;;5113197;28;20436;-80
2022/10/12 12:22:06;;;;;;;6.73;4.10;;;;;;;;;;5079917;28;20563;-80
2022/10/12 12:24:33;;;;;;;8.47;4.33;;;;;;;;;;5101097;28;20448;-80
2022/10/12 12:27:01;;;;;;;8.90;4.73;;;;;;;;;;5119744;28;20443;-80
2022/10/12 12:29:29;;;;;;;6.73;4.67;;;;;;;;;;5113570;28;20444;-80
2022/10/12 12:31:57;;;;;;;12.00;5.20;;;;;;;;;;5112880;28;20452;-79
2022/10/12 12:34:25;;;;;;;7.00;4.37;;;;;;;;;;5114015;28;20523;-75
2022/10/12 12:36:53;;;;;;;4.23;3.30;;;;;;;;;;5113434;28;20965;-80
2022/10/12 12:39:22;;;;;;;4.23;3.70;;;;;;;;;;5113226;28;21062;-76
2022/10/12 12:41:50;;;;;;;3.63;3.23;;;;;;;;;;5120787;28;20539;-80
2022/10/12 12:44:39;;;;;;;5.80;3.60;;;;;;;;;;5129447;28;20516;-80
2022/10/12 12:47:16;;;;;;;5.10;3.43;;;;;;;;;;5129846;28;20459;-80
2022/10/12 12:49:44;;;;;;;5.67;3.97;;;;;;;;;;5130323;28;20456;-80
2022/10/12 12:52:16;;;;;;;5.17;3.80;;;17.30;1.00;;;;;;5129747;28;20444;-80
2022/10/12 12:55:03;;;;;;;6.50;4.63;;;17.60;63.70;;;;;;5130406;28;20524;-80
2022/10/12 12:57:48;;;;;;;8.33;4.37;;;17.70;99.90;;;;;;5128021;28;20458;-81
2022/10/12 13:00:21;;;;;;;7.63;3.83;;;17.90;99.90;;;;;;5125813;28;20451;-81
2022/10/12 13:03:06;;;;;;;7.57;4.50;;;17.70;1.00;;;;;;5127563;28;20816;-80
2022/10/12 13:06:09;;;;;;;3.70;2.97;;;17.80;99.90;;;;;;5126808;28;20468;-81
2022/10/12 13:08:48;;;;;;;5.00;2.80;;;17.70;1.00;;;;;;5125956;28;20519;-82
2022/10/12 13:11:44;;;;;;;3.27;2.73;;;17.80;99.90;;;;;;5118335;28;20440;-82
2022/10/12 13:14:33;;;;;;;6.60;3.67;;;17.70;1.00;;;;;;5111699;28;20459;-81
2022/10/12 13:17:19;;;;;;;5.83;3.73;;;17.70;1.00;;;;;;5111865;28;20463;-81
2022/10/12 13:19:46;;;;;;;4.87;3.37;;;17.80;1.00;;;;;;5111839;28;20936;-82
2022/10/12 13:22:14;;;;;;;6.03;3.40;;;;;;;;;;5111638;28;20484;-81
2022/10/12 13:24:45;;;;;;;3.57;2.97;;;;;;;;;;5111848;28;20459;-81
2022/10/12 13:27:16;;;;;;;4.23;3.37;;;;;;;;;;5111834;28;20450;-81
2022/10/12 13:29:46;;;;;;;8.50;4.30;;;;;;;;;;5111870;28;20439;-81
2022/10/12 13:32:20;;;;;;;5.67;3.70;;;;;;;;;;5111333;28;20970;-81
2022/10/12 13:34:49;;;;;;;3.93;3.23;;;;;;;;;;5115234;28;20800;-81
2022/10/12 13:37:16;;;;;;;4.50;3.50;;;;;;;;;;5113638;28;20938;-80
2022/10/12 13:39:45;;;;;;;3.80;2.70;;;;;;;;;;5111117;28;20447;-80
2022/10/12 13:42:15;;;;;;;5.50;3.37;;;;;;;;;;5111403;28;20483;-81
2022/10/12 13:44:43;;;;;;;4.83;3.20;;;;;;;;;;5111942;28;20440;-81
2022/10/12 13:47:23;;;;;;;6.57;3.63;;;;;;;;;;5111222;28;20503;-81
2022/10/12 13:49:50;;;;;;;3.53;3.17;;;;;;;;;;5111419;28;20436;-79
2022/10/12 13:52:20;;;;;;;3.77;3.03;;;;;;;;;;5111637;28;20478;-81
2022/10/12 13:54:48;;;;;;;3.87;2.60;;;;;;;;;;5111613;28;20458;-81
2022/10/12 13:57:18;;;;;;;12.73;3.30;;;;;;;;;;5111525;28;20440;-81
2022/10/12 13:59:47;;;;;;;9.63;3.60;;;;;;;;;;5111453;28;20461;-81
2022/10/12 14:02:18;;;;;;;8.27;4.13;;;;;;;;;;5111441;28;20843;-82
2022/10/12 14:04:46;;;;;;;5.03;3.50;;;;;;;;;;5111541;28;20456;-81
2022/10/12 14:07:18;;;;;;;13.73;3.60;;;;;;;;;;5111839;28;20444;-82
2022/10/12 14:09:46;;;;;;;5.60;2.63;;;;;;;;;;5115333;28;20447;-81
2022/10/12 14:12:14;;;;;;;4.37;2.80;;;;;;;;;;5115255;28;20694;-81
2022/10/12 14:14:43;;;;;;;3.13;2.57;;;;;;;;;;5115693;28;20447;-82
2022/10/12 14:17:14;;;;;;;5.53;3.20;;;;;;;;;;5114935;28;20463;-81
2022/10/12 14:19:45;;;;;;;3.50;3.10;;;;;;;;;;5114991;28;20444;-82
2022/10/12 14:22:19;;;;;;;7.80;3.10;;;;;;;;;;5115049;28;20443;-79
2022/10/12 14:24:46;;;;;;;7.97;3.10;;;;;;;;;;5102874;28;20444;-82
2022/10/12 14:27:21;;;;;;;2.97;2.67;;;;;;;;;;5115213;28;20450;-82
2022/10/12 14:29:48;;;;;;;4.77;3.60;;;;;;;;;;5115435;28;20441;-81
2022/10/12 14:32:34;;;;;;;3.63;3.23;;;;;;;;;;5115740;28;20455;-81
2022/10/12 14:35:10;;;;;;;5.00;3.40;;;;;;;;;;5115233;28;20444;-81
2022/10/12 14:37:38;;;;;;;3.10;2.57;;;;;;;;;;5101897;28;20813;-81